Time;durP1;ratioP1;P1;durP2;ratioP2;P2;SDS_P1;SDS_P2;PMS_P1;PMS_P2;Temp;Humidity;BMP_temperature;BMP_pressure;BME280_temperature;BME280_humidity;BME280_pressure;Samples;Min_cycle;Max_cycle;Signal;HPM_P1;HPM_P2
2023/02/14 00:00:17;;;;;;;81.50;30.88;;;3.60;99.90;;;;;;5048382;28;20493;-67
2023/02/14 00:02:43;;;;;;;85.38;30.65;;;3.70;99.90;;;;;;5048991;28;20134;-67
2023/02/14 00:05:09;;;;;;;97.55;31.27;;;3.60;99.90;;;;;;5069278;28;20091;-66
2023/02/14 00:07:35;;;;;;;133.02;31.63;;;3.60;99.90;;;;;;5071010;28;20052;-67
2023/02/14 00:10:01;;;;;;;257.85;33.75;;;3.60;99.90;;;;;;5068943;28;20048;-67
2023/02/14 00:12:27;;;;;;;262.92;31.80;;;3.60;99.90;;;;;;5070973;28;20080;-67
2023/02/14 00:17:37;;;;;;;414.98;32.22;;;3.60;99.90;;;;;;5069766;28;20051;-67
2023/02/14 00:20:03;;;;;;;665.70;38.63;;;3.50;99.90;;;;;;5070562;28;20044;-67
2023/02/14 00:22:29;;;;;;;859.58;42.67;;;3.50;99.90;;;;;;5051337;28;20048;-67
2023/02/14 00:24:55;;;;;;;632.20;34.70;;;3.30;99.90;;;;;;5052335;28;20466;-67
2023/02/14 00:27:21;;;;;;;481.05;25.50;;;3.20;99.90;;;;;;5068934;28;20103;-67
2023/02/14 00:29:46;;;;;;;377.85;23.80;;;3.20;99.90;;;;;;5052151;28;20048;-67
2023/02/14 00:32:12;;;;;;;404.02;23.33;;;3.10;99.90;;;;;;5069015;28;20064;-67
2023/02/14 00:34:40;;;;;;;331.23;20.45;;;3.10;99.90;;;;;;5052003;28;22088;-66
2023/02/14 00:37:05;;;;;;;366.23;21.73;;;3.10;99.90;;;;;;5070169;28;20048;-66
2023/02/14 00:39:31;;;;;;;453.60;23.00;;;3.20;99.90;;;;;;5050450;28;20045;-67
2023/02/14 00:41:57;;;;;;;395.13;22.35;;;3.20;99.90;;;;;;5052033;28;20051;-67
2023/02/14 00:44:22;;;;;;;370.85;20.10;;;3.20;99.90;;;;;;5068740;28;20045;-67
2023/02/14 00:46:48;;;;;;;322.48;18.48;;;3.20;99.90;;;;;;5070034;28;20603;-67
2023/02/14 00:49:14;;;;;;;168.68;17.05;;;3.20;99.90;;;;;;5069021;28;20044;-67
2023/02/14 00:51:40;;;;;;;233.23;17.67;;;3.20;99.90;;;;;;5052180;28;20601;-67
2023/02/14 00:54:06;;;;;;;185.85;17.13;;;3.10;99.90;;;;;;5051589;28;20045;-67
2023/02/14 00:56:31;;;;;;;143.65;16.02;;;3.10;99.90;;;;;;5050977;28;20066;-67
2023/02/14 00:58:57;;;;;;;127.43;15.80;;;3.00;99.90;;;;;;5051552;28;20037;-67
2023/02/14 01:01:23;;;;;;;126.68;15.88;;;3.00;99.90;;;;;;5066802;28;20044;-67
2023/02/14 01:03:51;;;;;;;132.25;15.00;;;2.90;99.90;;;;;;5051980;28;20063;-67
2023/02/14 01:06:17;;;;;;;127.20;15.48;;;2.90;99.90;;;;;;5028695;28;20409;-67
2023/02/14 01:08:43;;;;;;;141.00;15.18;;;2.90;99.90;;;;;;5012227;28;20122;-67
2023/02/14 01:11:18;;;;;;;102.88;15.02;;;2.80;99.90;;;;;;5028327;28;20040;-67
2023/02/14 01:13:44;;;;;;;101.32;14.18;;;2.80;99.90;;;;;;5027831;28;20081;-67
2023/02/14 01:16:14;;;;;;;72.97;15.73;;;2.80;99.90;;;;;;5029778;28;20045;-67
2023/02/14 01:18:40;;;;;;;53.28;14.68;;;2.80;99.90;;;;;;5028535;28;20044;-67
2023/02/14 01:21:16;;;;;;;70.60;14.23;;;2.80;99.90;;;;;;5028096;28;20056;-67
2023/02/14 01:23:43;;;;;;;55.88;15.05;;;2.80;99.90;;;;;;5027914;28;20045;-67
2023/02/14 01:26:09;;;;;;;50.08;14.43;;;2.80;99.90;;;;;;5027855;28;20590;-67
2023/02/14 01:28:36;;;;;;;55.50;14.18;;;2.80;99.90;;;;;;5029450;28;20412;-67
2023/02/14 01:31:12;;;;;;;58.50;14.95;;;2.80;99.90;;;;;;5028635;28;20073;-67
2023/02/14 01:33:40;;;;;;;65.78;14.75;;;2.70;99.90;;;;;;5015954;28;20042;-67
2023/02/14 01:36:06;;;;;;;69.78;14.93;;;2.70;99.90;;;;;;5027665;28;20057;-67
2023/02/14 01:38:32;;;;;;;52.97;15.43;;;2.70;99.90;;;;;;5029468;28;20349;-67
2023/02/14 01:40:59;;;;;;;40.75;13.02;;;2.70;99.90;;;;;;5026416;28;20055;-67
2023/02/14 01:43:25;;;;;;;55.58;14.68;;;2.70;99.90;;;;;;5029496;28;20050;-67
2023/02/14 01:45:50;;;;;;;56.35;15.52;;;2.70;99.90;;;;;;5027633;28;20057;-67
2023/02/14 01:48:20;;;;;;;92.60;14.82;;;2.70;99.90;;;;;;5028443;28;20457;-66
2023/02/14 01:50:48;;;;;;;176.43;14.75;;;2.60;99.90;;;;;;5021915;28;20061;-67
2023/02/14 01:53:25;;;;;;;114.40;15.25;;;2.70;99.90;;;;;;5025637;28;20057;-67
2023/02/14 01:55:58;;;;;;;259.90;17.30;;;2.70;99.90;;;;;;5027145;28;20053;-67
2023/02/14 01:58:27;;;;;;;147.13;16.55;;;2.60;99.90;;;;;;5024095;28;20041;-67
2023/02/14 02:00:55;;;;;;;297.33;18.05;;;2.70;99.90;;;;;;5014169;28;20104;-67
2023/02/14 02:03:26;;;;;;;160.40;16.60;;;2.70;99.90;;;;;;5013892;28;20044;-67
2023/02/14 02:05:57;;;;;;;281.30;18.60;;;2.80;99.90;;;;;;5056059;28;20139;-67
2023/02/14 02:08:23;;;;;;;286.20;19.70;;;2.80;99.90;;;;;;5068334;28;20494;-67
2023/02/14 02:10:49;;;;;;;84.43;16.67;;;2.80;99.90;;;;;;5049359;28;20056;-67
2023/02/14 02:13:20;;;;;;;44.33;15.57;;;2.80;99.90;;;;;;5050899;28;20502;-67
2023/02/14 02:15:53;;;;;;;36.15;16.92;;;2.80;99.90;;;;;;5032452;28;20088;-67
2023/02/14 02:18:32;;;;;;;38.58;15.68;;;2.80;99.90;;;;;;5067760;28;20051;-67
2023/02/14 02:21:15;;;;;;;36.45;16.20;;;2.80;99.90;;;;;;5034598;28;20056;-67
2023/02/14 02:24:10;;;;;;;34.17;16.23;;;2.70;99.90;;;;;;5057755;28;20041;-67
2023/02/14 02:26:51;;;;;;;34.72;15.77;;;2.70;99.90;;;;;;5067270;28;20495;-67
2023/02/14 02:29:59;;;;;;;26.25;13.98;;;2.70;99.90;;;;;;5062454;28;20083;-67
2023/02/14 02:32:51;;;;;;;28.63;15.10;;;2.70;99.90;;;;;;5004344;28;20111;-67
2023/02/14 02:35:49;;;;;;;29.92;14.48;;;2.60;99.90;;;;;;5040936;28;20410;-67
2023/02/14 02:38:40;;;;;;;27.35;14.20;;;2.50;99.90;;;;;;5068004;28;20037;-67
2023/02/14 02:41:09;;;;;;;32.10;15.38;;;2.50;99.90;;;;;;5048183;28;20036;-67
2023/02/14 02:44:02;;;;;;;28.88;15.18;;;2.50;99.90;;;;;;5036766;28;20052;-67
2023/02/14 02:47:01;;;;;;;25.85;13.73;;;2.50;99.90;;;;;;5049045;28;20044;-67
2023/02/14 02:56:44;;;;;;;26.20;13.70;;;2.30;99.90;;;;;;5067619;28;20071;-67
2023/02/14 02:58:24;;;;;;;24.63;13.68;;;2.30;99.90;;;;;;5047986;28;20098;-67
2023/02/14 03:00:53;;;;;;;25.58;14.35;;;2.30;99.90;;;;;;5068157;28;20457;-67
2023/02/14 03:06:06;;;;;;;27.88;14.20;;;2.30;99.90;;;;;;5048610;28;20073;-67
2023/02/14 03:08:32;;;;;;;29.20;13.70;;;2.40;99.90;;;;;;5032599;28;20490;-67
2023/02/14 03:11:00;;;;;;;27.80;13.82;;;2.30;99.90;;;;;;5048200;28;20048;-67
2023/02/14 03:14:08;;;;;;;25.15;13.05;;;2.30;99.90;;;;;;5067805;28;20090;-67
2023/02/14 03:16:49;;;;;;;27.88;13.13;;;2.20;99.90;;;;;;5031446;28;20449;-67
2023/02/14 03:22:44;;;;;;;25.48;13.77;;;2.20;99.90;;;;;;5067338;28;20048;-67
2023/02/14 03:25:53;;;;;;;24.20;13.18;;;2.20;99.90;;;;;;5037867;28;20433;-67
2023/02/14 03:28:31;;;;;;;23.45;12.60;;;2.10;99.90;;;;;;5019906;28;20052;-67
2023/02/14 03:31:29;;;;;;;29.02;13.60;;;2.10;99.90;;;;;;5049284;28;20055;-67
2023/02/14 03:33:58;;;;;;;22.17;13.05;;;2.00;99.90;;;;;;5067467;28;20097;-67
2023/02/14 03:36:41;;;;;;;25.08;13.02;;;1.90;99.90;;;;;;5065686;28;20425;-67
2023/02/14 03:39:12;;;;;;;29.38;13.32;;;1.90;99.90;;;;;;5055695;28;20048;-67
2023/02/14 03:41:45;;;;;;;;;;;1.80;99.90;;;;;;5070485;28;20037;-67
2023/02/14 03:44:16;;;;;;;25.42;13.57;;;1.70;99.90;;;;;;5071664;28;20058;-67
2023/02/14 03:46:46;;;;;;;32.08;13.20;;;1.70;99.90;;;;;;5069569;28;20444;-67
2023/02/14 03:49:16;;;;;;;29.00;13.98;;;1.60;99.90;;;;;;5070627;28;20078;-67
2023/02/14 03:51:47;;;;;;;32.25;15.00;;;1.60;99.90;;;;;;5053404;28;20079;-67
2023/02/14 03:54:14;;;;;;;31.38;13.90;;;1.60;99.90;;;;;;5070229;28;20036;-67
2023/02/14 03:56:53;;;;;;;30.17;14.95;;;1.60;99.90;;;;;;5053441;28;20059;-67
2023/02/14 03:59:22;;;;;;;28.55;15.30;;;1.50;99.90;;;;;;5069759;28;20044;-67
2023/02/14 04:02:12;;;;;;;28.02;14.35;;;1.50;99.90;;;;;;5070992;28;20051;-67
2023/02/14 04:04:43;;;;;;;34.25;15.35;;;1.50;99.90;;;;;;5052611;28;20105;-67
2023/02/14 04:07:17;;;;;;;35.92;14.80;;;1.50;99.90;;;;;;5051425;28;20131;-67
2023/02/14 04:09:43;;;;;;;38.05;14.48;;;1.50;99.90;;;;;;5071124;28;20422;-67
2023/02/14 04:12:09;;;;;;;88.25;16.58;;;1.50;99.90;;;;;;5069599;28;20041;-67
2023/02/14 04:14:35;;;;;;;37.80;15.70;;;1.50;99.90;;;;;;5070628;28;20044;-67
2023/02/14 04:19:45;;;;;;;36.65;15.30;;;1.40;99.90;;;;;;5069320;28;20449;-67
2023/02/14 04:22:11;;;;;;;35.72;16.17;;;1.50;99.90;;;;;;5036256;28;20098;-67
2023/02/14 04:24:37;;;;;;;33.97;16.38;;;1.70;99.90;;;;;;5068663;28;20079;-67
2023/02/14 04:27:08;;;;;;;38.13;16.92;;;1.80;99.90;;;;;;5053319;28;20098;-67
2023/02/14 04:29:45;;;;;;;40.35;17.17;;;1.90;99.90;;;;;;5034973;28;20132;-67
2023/02/14 04:32:15;;;;;;;38.15;16.88;;;1.90;99.90;;;;;;5069615;28;20372;-67
2023/02/14 04:34:41;;;;;;;36.42;16.55;;;2.00;99.90;;;;;;5052476;28;20052;-67
2023/02/14 04:37:07;;;;;;;35.97;16.55;;;2.00;99.90;;;;;;5069269;28;20570;-67
2023/02/14 04:39:35;;;;;;;42.72;18.10;;;2.10;99.90;;;;;;5069958;28;20052;-67
2023/02/14 04:42:01;;;;;;;36.00;17.25;;;2.20;99.90;;;;;;5055556;28;20481;-67
2023/02/14 04:44:27;;;;;;;42.05;16.90;;;2.20;99.90;;;;;;5052113;28;20048;-67
2023/02/14 04:46:52;;;;;;;46.10;18.85;;;2.20;99.90;;;;;;5068839;28;20093;-67
2023/02/14 04:49:18;;;;;;;41.10;17.92;;;2.30;99.90;;;;;;5051207;28;20052;-67
2023/02/14 04:51:44;;;;;;;39.95;16.85;;;2.30;99.90;;;;;;5050556;28;20123;-67
2023/02/14 04:54:10;;;;;;;43.72;18.58;;;2.30;99.90;;;;;;5068871;28;20067;-67
2023/02/14 04:56:36;;;;;;;42.60;18.35;;;2.30;99.90;;;;;;5069874;28;20047;-67
2023/02/14 04:59:02;;;;;;;47.00;18.58;;;2.20;99.90;;;;;;5068925;28;20071;-67
2023/02/14 05:01:28;;;;;;;39.33;17.25;;;2.20;99.90;;;;;;5051074;28;20049;-67
2023/02/14 05:03:54;;;;;;;42.15;16.50;;;2.20;99.90;;;;;;5050411;28;20037;-67
2023/02/14 05:06:19;;;;;;;32.17;15.77;;;2.20;99.90;;;;;;5070035;28;20060;-67
2023/02/14 05:08:45;;;;;;;34.55;15.52;;;2.20;99.90;;;;;;5068893;28;20049;-67
2023/02/14 05:11:11;;;;;;;36.33;17.65;;;2.20;99.90;;;;;;5068952;28;20045;-67
2023/02/14 05:13:37;;;;;;;35.78;17.92;;;2.20;99.90;;;;;;5051581;28;20048;-67
2023/02/14 05:16:03;;;;;;;46.40;16.75;;;2.20;99.90;;;;;;5068114;28;20044;-67
2023/02/14 05:18:29;;;;;;;32.13;15.40;;;2.10;99.90;;;;;;5069682;28;20041;-67
2023/02/14 05:20:54;;;;;;;42.25;17.02;;;2.00;99.90;;;;;;5050181;28;20486;-67
2023/02/14 05:23:21;;;;;;;40.50;16.95;;;2.00;99.90;;;;;;5069807;28;20135;-67
2023/02/14 05:25:48;;;;;;;33.83;16.25;;;1.90;99.90;;;;;;5050162;28;20048;-67
2023/02/14 05:28:14;;;;;;;43.25;16.85;;;1.90;99.90;;;;;;5069268;28;20459;-67
2023/02/14 05:30:40;;;;;;;37.55;16.30;;;1.80;99.90;;;;;;5069337;28;20044;-67
2023/02/14 05:33:06;;;;;;;35.83;16.67;;;1.80;99.90;;;;;;5067851;28;20094;-67
2023/02/14 05:35:32;;;;;;;33.67;15.95;;;1.80;99.90;;;;;;5051270;28;20053;-67
2023/02/14 05:37:58;;;;;;;35.35;15.88;;;1.70;99.90;;;;;;5049938;28;20075;-67
2023/02/14 05:40:25;;;;;;;31.40;15.60;;;1.60;99.90;;;;;;5051683;28;20501;-67
2023/02/14 05:42:52;;;;;;;41.83;17.35;;;1.60;99.90;;;;;;5049275;28;20117;-67
2023/02/14 05:45:18;;;;;;;40.25;15.82;;;1.60;99.90;;;;;;5069378;28;20039;-67
2023/02/14 05:47:44;;;;;;;34.75;16.50;;;1.50;99.90;;;;;;5050182;28;20119;-67
2023/02/14 05:50:10;;;;;;;39.67;16.23;;;1.50;99.90;;;;;;5033635;28;20242;-67
2023/02/14 05:52:36;;;;;;;35.28;16.50;;;1.50;99.90;;;;;;5069113;28;20036;-67
2023/02/14 05:55:03;;;;;;;32.33;15.95;;;1.50;99.90;;;;;;5067171;28;20105;-66
2023/02/14 05:57:30;;;;;;;32.97;17.17;;;1.40;99.90;;;;;;5069556;28;20044;-66
2023/02/14 05:59:56;;;;;;;35.05;16.63;;;1.40;99.90;;;;;;5067431;28;20116;-66
2023/02/14 06:02:22;;;;;;;35.95;15.80;;;1.30;99.90;;;;;;5051217;28;20154;-66
2023/02/14 06:04:48;;;;;;;33.97;16.05;;;1.30;99.90;;;;;;5048903;28;20110;-66
2023/02/14 06:07:14;;;;;;;34.78;15.43;;;1.30;99.90;;;;;;5068348;28;20044;-66
2023/02/14 06:09:39;;;;;;;37.38;16.42;;;1.30;99.90;;;;;;5033689;28;20583;-66
2023/02/14 06:12:06;;;;;;;34.75;16.33;;;1.20;99.90;;;;;;5067627;28;20037;-66
2023/02/14 06:14:31;;;;;;;37.92;16.40;;;1.20;99.90;;;;;;5050256;28;20047;-66
2023/02/14 06:16:57;;;;;;;37.00;16.98;;;1.20;99.90;;;;;;5066836;28;20506;-66
2023/02/14 06:19:23;;;;;;;38.10;17.17;;;1.10;99.90;;;;;;5050519;28;20074;-66
2023/02/14 06:21:49;;;;;;;36.90;16.20;;;1.10;99.90;;;;;;5048856;28;20472;-66
2023/02/14 06:24:15;;;;;;;39.13;16.33;;;1.10;99.90;;;;;;5068481;28;20084;-66
2023/02/14 06:26:41;;;;;;;36.33;16.27;;;1.00;99.90;;;;;;5067356;28;20461;-66
2023/02/14 06:29:07;;;;;;;37.83;16.45;;;1.00;99.90;;;;;;5067405;28;20052;-66
2023/02/14 06:31:33;;;;;;;40.40;17.25;;;1.00;99.90;;;;;;5050254;28;20043;-66
2023/02/14 06:33:59;;;;;;;42.63;17.05;;;1.00;99.90;;;;;;5048407;28;20036;-66
2023/02/14 06:36:25;;;;;;;48.20;17.60;;;1.00;99.90;;;;;;5049910;28;20082;-66
2023/02/14 06:38:51;;;;;;;34.00;16.10;;;1.00;99.90;;;;;;5066830;28;20041;-66
2023/02/14 06:41:17;;;;;;;48.45;17.40;;;0.90;99.90;;;;;;5033743;28;20106;-66
2023/02/14 06:43:47;;;;;;;36.47;15.85;;;0.80;99.90;;;;;;5067138;28;20109;-66
2023/02/14 06:46:13;;;;;;;44.97;18.73;;;0.80;99.90;;;;;;5032529;28;20060;-66
2023/02/14 06:48:40;;;;;;;40.65;17.30;;;0.80;99.90;;;;;;5049641;28;20048;-66
2023/02/14 06:51:06;;;;;;;37.28;16.15;;;0.80;99.90;;;;;;5066904;28;20362;-66
2023/02/14 06:53:32;;;;;;;42.63;16.45;;;0.70;99.90;;;;;;5050313;28;20467;-66
2023/02/14 06:55:57;;;;;;;33.08;15.95;;;0.70;99.90;;;;;;5048015;28;20285;-66
2023/02/14 06:58:23;;;;;;;36.30;16.92;;;0.70;99.90;;;;;;5067762;28;20055;-66
2023/02/14 07:00:49;;;;;;;36.03;16.85;;;0.70;99.90;;;;;;5048601;28;20052;-66
2023/02/14 07:03:15;;;;;;;34.35;15.13;;;0.60;99.90;;;;;;5067770;28;20044;-66
2023/02/14 07:05:43;;;;;;;38.65;16.52;;;0.70;99.90;;;;;;5049214;28;20056;-66
2023/02/14 07:08:10;;;;;;;38.08;17.88;;;0.70;99.90;;;;;;5066527;28;20101;-66
2023/02/14 07:10:36;;;;;;;39.50;18.00;;;0.80;99.90;;;;;;5049387;28;20346;-66
2023/02/14 07:13:02;;;;;;;44.47;18.25;;;0.80;99.90;;;;;;5047213;28;20041;-66
2023/02/14 07:15:28;;;;;;;41.13;18.02;;;0.90;99.90;;;;;;5067495;28;20482;-66
2023/02/14 07:17:54;;;;;;;42.97;18.08;;;1.00;99.90;;;;;;5065550;28;20071;-66
2023/02/14 07:20:20;;;;;;;48.42;19.02;;;1.10;99.90;;;;;;5066579;28;20083;-66
2023/02/14 07:22:46;;;;;;;40.25;18.27;;;1.10;99.90;;;;;;5048378;28;20048;-66
2023/02/14 07:25:12;;;;;;;50.53;18.02;;;1.20;99.90;;;;;;5048295;28;20045;-66
2023/02/14 07:27:39;;;;;;;50.83;18.80;;;1.20;99.90;;;;;;5067510;28;20048;-66
2023/02/14 07:30:06;;;;;;;54.35;18.95;;;1.20;99.90;;;;;;5047001;28;20048;-66
2023/02/14 07:32:31;;;;;;;58.25;21.08;;;1.30;99.90;;;;;;5048799;28;20088;-66
2023/02/14 07:34:57;;;;;;;52.40;22.60;;;1.30;99.90;;;;;;5046969;28;20144;-66
2023/02/14 07:37:23;;;;;;;57.25;22.13;;;1.30;99.90;;;;;;5049105;28;20043;-66
2023/02/14 07:39:49;;;;;;;81.13;22.15;;;1.40;99.90;;;;;;5065657;28;20044;-66
2023/02/14 07:42:15;;;;;;;52.92;19.67;;;1.40;99.90;;;;;;5048505;28;20063;-66
2023/02/14 07:44:41;;;;;;;48.33;17.80;;;1.40;99.90;;;;;;5048723;28;20074;-66
2023/02/14 07:47:09;;;;;;;62.80;21.92;;;1.50;99.90;;;;;;5030570;28;20102;-66
2023/02/14 07:49:35;;;;;;;66.93;20.92;;;1.50;99.90;;;;;;5067456;28;20076;-66
2023/02/14 07:52:01;;;;;;;50.60;18.70;;;1.60;99.90;;;;;;5064647;28;20056;-66
2023/02/14 07:54:27;;;;;;;46.10;18.45;;;1.60;99.90;;;;;;5049330;28;20448;-66
2023/02/14 07:56:53;;;;;;;49.72;19.15;;;1.60;99.90;;;;;;5065492;28;20037;-66
2023/02/14 07:59:19;;;;;;;54.80;19.98;;;1.70;99.90;;;;;;5049119;28;20040;-66
2023/02/14 08:01:45;;;;;;;52.60;18.88;;;1.80;99.90;;;;;;5065921;28;20068;-66
2023/02/14 08:04:13;;;;;;;43.85;18.63;;;1.90;99.90;;;;;;5046393;28;20494;-66
2023/02/14 08:06:40;;;;;;;46.55;18.27;;;2.00;99.90;;;;;;5043548;28;20049;-66
2023/02/14 08:09:08;;;;;;;49.05;19.25;;;2.00;99.90;;;;;;5044683;28;20040;-66
2023/02/14 08:14:20;;;;;;;52.25;19.27;;;2.10;99.90;;;;;;5043192;28;20053;-66
2023/02/14 08:16:45;;;;;;;52.45;19.27;;;2.20;99.90;;;;;;5046349;28;20056;-66
2023/02/14 08:19:11;;;;;;;56.33;19.60;;;2.20;99.90;;;;;;5044142;28;20037;-66
2023/02/14 08:21:37;;;;;;;49.25;19.63;;;2.30;99.90;;;;;;5043054;28;20033;-66
2023/02/14 08:24:03;;;;;;;52.58;18.60;;;2.30;99.90;;;;;;5026359;28;20047;-66
2023/02/14 08:26:29;;;;;;;56.58;21.52;;;2.30;99.90;;;;;;5040589;28;20052;-66
2023/02/14 08:28:55;;;;;;;51.30;20.63;;;2.40;99.90;;;;;;5049484;28;20458;-66
2023/02/14 08:31:26;;;;;;;44.40;19.33;;;2.40;99.90;;;;;;5047693;28;20120;-66
2023/02/14 08:33:52;;;;;;;50.35;19.67;;;2.50;99.90;;;;;;5048388;28;20483;-66
2023/02/14 08:36:18;;;;;;;49.35;19.75;;;2.60;99.90;;;;;;5048188;28;20045;-65
2023/02/14 08:38:46;;;;;;;50.15;20.05;;;2.60;99.90;;;;;;5048673;28;20025;-66
2023/02/14 08:41:16;;;;;;;44.83;19.92;;;2.70;99.90;;;;;;5050065;28;20877;-65
2023/02/14 08:43:43;;;;;;;54.22;20.90;;;2.70;99.90;;;;;;5047004;28;20041;-66
2023/02/14 08:46:11;;;;;;;54.83;21.30;;;2.80;99.90;;;;;;5049791;28;20403;-66
2023/02/14 08:48:38;;;;;;;53.42;20.83;;;2.90;99.90;;;;;;5048838;28;20111;-66
2023/02/14 08:51:06;;;;;;;49.70;19.90;;;3.00;99.90;;;;;;5049978;28;20168;-65
2023/02/14 08:53:32;;;;;;;47.40;19.85;;;3.10;99.90;;;;;;5031873;28;20052;-65
2023/02/14 08:56:05;;;;;;;55.80;21.33;;;3.20;99.90;;;;;;5039186;28;20585;-66
2023/02/14 08:58:31;;;;;;;51.13;19.35;;;3.20;99.90;;;;;;5031931;28;20387;-66
2023/02/14 09:00:57;;;;;;;50.72;21.42;;;3.30;99.90;;;;;;5048397;28;20126;-65
2023/02/14 09:03:23;;;;;;;49.67;21.67;;;3.40;99.90;;;;;;5049809;28;20118;-66
2023/02/14 09:05:49;;;;;;;51.78;20.42;;;3.40;99.90;;;;;;5046769;28;20052;-65
2023/02/14 09:08:15;;;;;;;48.17;21.85;;;3.50;99.90;;;;;;5048715;28;20053;-65
2023/02/14 09:10:41;;;;;;;43.67;19.38;;;3.60;99.90;;;;;;5039070;28;20377;-65
2023/02/14 09:13:07;;;;;;;44.95;19.60;;;3.60;99.90;;;;;;5041753;28;20049;-65
2023/02/14 09:15:32;;;;;;;39.80;18.73;;;3.70;99.90;;;;;;5048850;28;20036;-65
2023/02/14 09:17:59;;;;;;;41.05;18.92;;;3.80;99.90;;;;;;5047937;28;20131;-65
2023/02/14 09:20:24;;;;;;;42.00;19.80;;;3.80;99.90;;;;;;5047089;28;20111;-65
2023/02/14 09:22:50;;;;;;;36.88;18.55;;;3.90;99.90;;;;;;5047399;28;20082;-65
2023/02/14 09:25:16;;;;;;;33.47;16.67;;;4.00;99.90;;;;;;5048450;28;20037;-66
2023/02/14 09:27:42;;;;;;;38.67;18.85;;;4.10;99.90;;;;;;5045486;28;20116;-65
2023/02/14 09:30:09;;;;;;;30.63;16.90;;;4.10;99.90;;;;;;5045170;28;20076;-65
2023/02/14 09:32:35;;;;;;;33.60;17.45;;;4.20;99.90;;;;;;5047026;28;20128;-65
2023/02/14 09:35:01;;;;;;;31.38;18.17;;;4.20;99.90;;;;;;5045384;28;20499;-65
2023/02/14 09:40:14;;;;;;;31.95;19.55;;;4.30;99.90;;;;;;5041209;28;20075;-65
2023/02/14 09:43:01;;;;;;;34.67;20.58;;;4.40;99.90;;;;;;5049454;28;20155;-65
2023/02/14 09:45:29;;;;;;;31.65;18.30;;;4.50;99.90;;;;;;5049102;28;20053;-65
2023/02/14 09:48:05;;;;;;;35.92;20.25;;;4.60;99.90;;;;;;5048197;28;20045;-66
2023/02/14 09:51:10;;;;;;;33.72;20.27;;;4.70;99.90;;;;;;5046899;28;20055;-66
2023/02/14 09:53:44;;;;;;;45.88;19.77;;;4.80;99.90;;;;;;5016892;28;20462;-66
2023/02/14 09:56:18;;;;;;;36.92;19.20;;;5.00;99.90;;;;;;5048471;28;20048;-66
2023/02/14 09:59:03;;;;;;;37.88;21.17;;;5.00;99.90;;;;;;5049115;28;20083;-66
2023/02/14 10:01:39;;;;;;;31.17;18.92;;;5.20;99.90;;;;;;5047192;28;20052;-66
2023/02/14 10:04:20;;;;;;;39.97;20.30;;;5.30;99.90;;;;;;5045443;28;20048;-65
2023/02/14 10:07:09;;;;;;;33.80;18.85;;;5.40;99.90;;;;;;5067617;28;20070;-66
2023/02/14 10:09:53;;;;;;;37.67;20.85;;;5.50;99.90;;;;;;5057849;28;20040;-66
2023/02/14 10:12:30;;;;;;;35.22;21.63;;;5.50;99.90;;;;;;5052421;28;20049;-66
2023/02/14 10:15:03;;;;;;;38.10;21.88;;;5.60;99.90;;;;;;5067066;28;20053;-66
2023/02/14 10:17:46;;;;;;;43.05;21.00;;;5.70;99.90;;;;;;5067811;28;20120;-65
2023/02/14 10:20:32;;;;;;;37.53;22.08;;;5.80;99.90;;;;;;5058204;28;20524;-65
2023/02/14 10:23:21;;;;;;;38.10;21.88;;;5.90;99.90;;;;;;5048480;28;20052;-65
2023/02/14 10:26:30;;;;;;;35.97;22.13;;;6.00;99.90;;;;;;5050258;28;20513;-66
2023/02/14 10:28:56;;;;;;;40.40;22.70;;;6.10;99.90;;;;;;5052056;28;20056;-65
2023/02/14 10:31:41;;;;;;;43.65;22.25;;;6.20;99.90;;;;;;5048291;28;20127;-66
2023/02/14 10:34:28;;;;;;;36.90;22.45;;;6.30;99.90;;;;;;5033609;28;20131;-65
2023/02/14 10:37:19;;;;;;;37.15;23.05;;;6.30;99.90;;;;;;5064217;28;20129;-65
2023/02/14 10:40:12;;;;;;;34.97;22.25;;;6.40;99.90;;;;;;5048037;28;20044;-65
2023/02/14 10:43:17;;;;;;;33.88;20.15;;;6.50;99.90;;;;;;5049999;28;20510;-65
2023/02/14 10:45:58;;;;;;;30.30;20.02;;;6.50;99.90;;;;;;5066009;28;20037;-65
2023/02/14 10:49:01;;;;;;;32.20;22.17;;;6.60;99.90;;;;;;5061080;28;20041;-65
2023/02/14 10:51:48;;;;;;;34.78;20.73;;;6.60;99.90;;;;;;5066247;28;20118;-65
2023/02/14 10:54:27;;;;;;;36.72;23.10;;;6.70;99.90;;;;;;5066362;28;20116;-65
2023/02/14 10:57:23;;;;;;;40.47;23.33;;;6.80;99.90;;;;;;5065078;28;20493;-66
2023/02/14 10:59:56;;;;;;;42.88;23.45;;;7.00;99.90;;;;;;5034848;28;20051;-65
2023/02/14 11:02:29;;;;;;;42.90;24.80;;;7.00;99.90;;;;;;5065731;28;20069;-65
2023/02/14 11:04:57;;;;;;;38.15;23.42;;;7.10;99.90;;;;;;5048884;28;20440;-66
2023/02/14 11:07:23;;;;;;;39.97;23.90;;;7.20;99.90;;;;;;5066152;28;20113;-65
2023/02/14 11:09:48;;;;;;;39.28;23.98;;;7.30;99.90;;;;;;5065906;28;20478;-65
2023/02/14 11:12:36;;;;;;;34.58;22.88;;;7.30;99.90;;;;;;5048423;28;20072;-65
2023/02/14 11:15:14;;;;;;;34.60;22.17;;;7.40;99.90;;;;;;5065274;28;20127;-66
2023/02/14 11:17:41;;;;;;;32.42;21.85;;;7.50;99.90;;;;;;5048880;28;20106;-65
2023/02/14 11:20:30;;;;;;;37.08;21.45;;;7.50;99.90;;;;;;5065671;28;20486;-65
2023/02/14 11:22:56;;;;;;;36.17;22.95;;;7.60;99.90;;;;;;5030974;28;20177;-65
2023/02/14 11:25:25;;;;;;;36.80;22.35;;;7.70;99.90;;;;;;5047832;28;20131;-65
2023/02/14 11:27:58;;;;;;;44.78;23.08;;;7.80;99.90;;;;;;5065016;28;20040;-66
2023/02/14 11:30:33;;;;;;;33.03;22.73;;;7.90;99.90;;;;;;5066829;28;20040;-65
2023/02/14 11:33:03;;;;;;;38.03;22.27;;;7.90;99.90;;;;;;5064084;28;20130;-65
2023/02/14 11:35:33;;;;;;;34.17;23.20;;;8.00;99.90;;;;;;5046763;28;20066;-65
2023/02/14 11:38:05;;;;;;;34.95;22.98;;;8.00;99.90;;;;;;5032402;28;20059;-65
2023/02/14 11:40:35;;;;;;;38.15;22.55;;;8.00;99.90;;;;;;5047317;28;20434;-65
2023/02/14 11:43:32;;;;;;;37.92;23.20;;;8.20;99.90;;;;;;5066249;28;20502;-65
2023/02/14 11:46:19;;;;;;;53.22;25.00;;;8.30;99.90;;;;;;5040500;28;20056;-65
2023/02/14 11:49:03;;;;;;;37.38;23.92;;;8.40;99.90;;;;;;5064289;28;20525;-65
2023/02/14 11:51:32;;;;;;;36.83;21.23;;;8.50;99.90;;;;;;5066224;28;20052;-65
2023/02/14 11:54:03;;;;;;;41.88;23.98;;;8.60;99.90;;;;;;5047712;28;20048;-65
2023/02/14 11:56:49;;;;;;;34.22;21.13;;;8.60;99.90;;;;;;5066356;28;20036;-65
2023/02/14 11:59:46;;;;;;;40.15;21.25;;;8.70;99.90;;;;;;5069524;28;20561;-65
2023/02/14 12:02:34;;;;;;;32.15;21.75;;;8.80;99.90;;;;;;5034519;28;20040;-65
2023/02/14 12:05:04;;;;;;;31.55;21.38;;;8.80;99.90;;;;;;5066615;28;20056;-65
2023/02/14 12:07:32;;;;;;;37.90;22.08;;;8.90;99.90;;;;;;5068996;28;20494;-65
2023/02/14 12:10:15;;;;;;;31.95;20.70;;;9.00;99.90;;;;;;5069903;28;20147;-65
2023/02/14 12:12:52;;;;;;;33.00;21.23;;;9.00;99.90;;;;;;5069947;28;20553;-65
2023/02/14 12:15:34;;;;;;;35.33;21.00;;;9.10;99.90;;;;;;5068562;28;20494;-65
2023/02/14 12:18:21;;;;;;;33.33;20.73;;;9.20;99.90;;;;;;5070354;28;20414;-65
2023/02/14 12:21:11;;;;;;;33.70;20.30;;;9.30;99.90;;;;;;5051641;28;20055;-65
2023/02/14 12:24:15;;;;;;;30.80;21.58;;;9.30;99.90;;;;;;5061761;28;20289;-65
2023/02/14 12:27:05;;;;;;;37.65;20.25;;;9.50;99.90;;;;;;5047929;28;20561;-65
2023/02/14 12:29:45;;;;;;;33.07;21.50;;;9.60;99.90;;;;;;5069363;28;20051;-65
2023/02/14 12:32:25;;;;;;;32.78;21.48;;;9.70;99.90;;;;;;5033457;28;20118;-65
2023/02/14 12:35:15;;;;;;;28.35;19.98;;;9.80;99.90;;;;;;5051212;28;20460;-65
2023/02/14 12:37:53;;;;;;;33.75;20.48;;;9.90;99.90;;;;;;5044235;28;20060;-65
2023/02/14 12:40:21;;;;;;;39.90;21.42;;;10.00;99.90;;;;;;5067035;28;20044;-65
2023/02/14 12:43:31;;;;;;;31.52;20.73;;;10.10;99.90;;;;;;5051314;28;20440;-65
2023/02/14 12:46:31;;;;;;;34.95;21.25;;;10.20;99.90;;;;;;5059498;28;20131;-65
2023/02/14 12:49:03;;;;;;;32.95;20.33;;;10.20;99.90;;;;;;5048155;28;20084;-65
2023/02/14 12:51:46;;;;;;;29.85;20.35;;;10.40;99.90;;;;;;5051374;28;20045;-65
2023/02/14 12:54:36;;;;;;;33.90;20.70;;;10.40;99.90;;;;;;5068291;28;20100;-65
2023/02/14 12:57:17;;;;;;;36.10;20.67;;;10.60;99.90;;;;;;5069894;28;20045;-65
2023/02/14 13:00:19;;;;;;;32.58;20.38;;;10.60;99.90;;;;;;5062554;28;20153;-66
2023/02/14 13:03:00;;;;;;;31.75;20.27;;;10.70;99.90;;;;;;5066206;28;20040;-66
2023/02/14 13:05:59;;;;;;;31.20;18.50;;;10.80;99.90;;;;;;5050568;28;20094;-66
2023/02/14 13:08:40;;;;;;;27.83;18.83;;;10.90;99.90;;;;;;5028239;28;20056;-66
2023/02/14 13:11:39;;;;;;;31.65;18.48;;;11.10;99.90;;;;;;5067175;28;20044;-66
2023/02/14 13:14:42;;;;;;;28.55;19.17;;;11.20;99.90;;;;;;5038767;28;20045;-66
2023/02/14 13:17:25;;;;;;;30.48;19.15;;;11.20;99.90;;;;;;4967847;28;20133;-66
2023/02/14 13:19:54;;;;;;;27.00;17.95;;;11.30;99.90;;;;;;5067495;28;20063;-66
2023/02/14 13:22:24;;;;;;;29.45;18.38;;;11.40;99.90;;;;;;5069497;28;20048;-66
2023/02/14 13:24:56;;;;;;;27.77;17.55;;;11.40;99.90;;;;;;5049139;28;20083;-66